Time;durP1;ratioP1;P1;durP2;ratioP2;P2;SDS_P1;SDS_P2;PMS_P1;PMS_P2;Temp;Humidity;BMP_temperature;BMP_pressure;BME280_temperature;BME280_humidity;BME280_pressure;Samples;Min_cycle;Max_cycle;Signal;HPM_P1;HPM_P2
2022/10/15 00:01:20;;;;;;;51.17;36.10;;;16.10;83.30;;;;;;5002495;28;20290;-68
2022/10/15 00:03:47;;;;;;;62.27;38.40;;;16.10;83.40;;;;;;5005556;28;20224;-68
2022/10/15 00:06:19;;;;;;;54.63;35.73;;;16.00;84.20;;;;;;5001510;28;20230;-68
2022/10/15 00:08:47;;;;;;;53.50;37.63;;;16.00;83.60;;;;;;5000545;28;20303;-68
2022/10/15 00:11:17;;;;;;;51.40;35.83;;;16.00;83.60;;;;;;5006247;28;20286;-68
2022/10/15 00:13:44;;;;;;;54.50;36.10;;;16.00;83.60;;;;;;5003634;28;20271;-68
2022/10/15 00:16:15;;;;;;;46.67;33.53;;;15.90;83.60;;;;;;5003199;28;20208;-68
2022/10/15 00:18:42;;;;;;;42.13;30.93;;;15.90;83.60;;;;;;5006660;28;20204;-68
2022/10/15 00:21:12;;;;;;;44.77;32.73;;;15.90;83.60;;;;;;5001586;28;20256;-68
2022/10/15 00:23:39;;;;;;;44.50;31.37;;;15.90;83.70;;;;;;5005184;28;20266;-68
2022/10/15 00:26:09;;;;;;;49.80;32.77;;;15.90;83.70;;;;;;5008823;28;20702;-68
2022/10/15 00:28:36;;;;;;;47.03;31.37;;;15.90;83.60;;;;;;5012007;28;20196;-68
2022/10/15 00:31:06;;;;;;;41.43;31.53;;;15.90;83.60;;;;;;5011936;28;20227;-68
2022/10/15 00:33:33;;;;;;;47.93;31.27;;;15.80;83.60;;;;;;5011779;28;20294;-68
2022/10/15 00:36:08;;;;;;;48.73;31.83;;;15.80;83.60;;;;;;5003989;28;20228;-68
2022/10/15 00:38:36;;;;;;;48.43;30.57;;;15.80;83.70;;;;;;5011163;28;20227;-68
2022/10/15 00:41:05;;;;;;;42.20;31.30;;;15.80;83.60;;;;;;5012098;28;20211;-68
2022/10/15 00:43:47;;;;;;;38.40;27.73;;;15.80;83.70;;;;;;5003053;28;20212;-68
2022/10/15 00:46:21;;;;;;;40.77;28.50;;;15.80;83.70;;;;;;5010463;28;20204;-68
2022/10/15 00:48:55;;;;;;;39.87;27.80;;;15.80;83.60;;;;;;5010729;28;20207;-68
2022/10/15 00:51:30;;;;;;;35.93;25.97;;;15.80;83.50;;;;;;5012162;28;20207;-68
2022/10/15 00:53:57;;;;;;;41.97;26.73;;;15.80;83.50;;;;;;5012010;28;20199;-68
2022/10/15 00:56:30;;;;;;;35.17;26.60;;;15.70;83.50;;;;;;5001214;28;20203;-68
2022/10/15 00:58:57;;;;;;;39.73;26.93;;;15.80;83.60;;;;;;5006661;28;20195;-68
2022/10/15 01:01:25;;;;;;;35.43;27.20;;;15.70;83.70;;;;;;5032672;28;20552;-68
2022/10/15 01:03:54;;;;;;;35.50;26.80;;;15.80;83.80;;;;;;5004823;28;20203;-68
2022/10/15 01:06:22;;;;;;;34.77;26.13;;;15.70;83.70;;;;;;5002123;28;20219;-68
2022/10/15 01:08:50;;;;;;;39.53;25.57;;;15.70;83.40;;;;;;5014398;28;20277;-68
2022/10/15 01:11:39;;;;;;;34.20;24.47;;;15.70;83.10;;;;;;5004736;28;20643;-68
2022/10/15 01:14:12;;;;;;;37.53;26.00;;;15.60;83.00;;;;;;5004438;28;20204;-68
2022/10/15 01:16:59;;;;;;;34.13;25.87;;;15.60;83.20;;;;;;5018083;28;20216;-68
2022/10/15 01:20:04;;;;;;;36.40;25.23;;;15.60;83.40;;;;;;4979131;28;20256;-68
2022/10/15 01:22:37;;;;;;;30.03;25.27;;;15.50;83.60;;;;;;5001478;28;20199;-68
2022/10/15 01:25:42;;;;;;;35.63;24.83;;;15.50;83.70;;;;;;5002141;28;20294;-68
2022/10/15 01:29:02;;;;;;;34.07;26.33;;;15.50;84.00;;;;;;5011282;28;20242;-68
2022/10/15 01:31:50;;;;;;;30.70;23.63;;;15.50;83.90;;;;;;4992935;28;20221;-68
2022/10/15 01:34:51;;;;;;;42.97;25.90;;;15.50;83.20;;;;;;4993806;28;20331;-68
2022/10/15 01:37:43;;;;;;;38.30;25.77;;;15.50;83.10;;;;;;5000117;28;20216;-68
2022/10/15 01:40:18;;;;;;;37.13;26.27;;;15.50;83.40;;;;;;5009932;28;20231;-68
2022/10/15 01:42:55;;;;;;;40.00;25.43;;;15.50;83.60;;;;;;5011370;28;20223;-68
2022/10/15 01:45:42;;;;;;;39.43;26.10;;;15.50;83.90;;;;;;5010211;28;20227;-68
2022/10/15 01:48:32;;;;;;;36.80;24.70;;;15.50;83.90;;;;;;4999187;28;20211;-68
2022/10/15 01:51:02;;;;;;;34.73;24.33;;;15.50;84.00;;;;;;5010625;28;20641;-68
2022/10/15 01:53:33;;;;;;;34.73;24.63;;;15.50;84.10;;;;;;5000932;28;20214;-68
2022/10/15 01:56:06;;;;;;;38.43;25.23;;;15.50;84.20;;;;;;5004033;28;20214;-68
2022/10/15 01:58:39;;;;;;;32.83;23.93;;;15.50;84.40;;;;;;5001861;28;20201;-68
2022/10/15 02:01:07;;;;;;;30.20;23.07;;;15.60;84.40;;;;;;5017062;28;20208;-68
2022/10/15 02:03:49;;;;;;;31.97;23.90;;;15.60;84.50;;;;;;5007703;28;20269;-68
2022/10/15 02:06:19;;;;;;;34.10;24.53;;;15.50;84.60;;;;;;5019401;28;20204;-68
2022/10/15 02:08:52;;;;;;;32.33;23.90;;;15.60;84.50;;;;;;5001040;28;20256;-68
2022/10/15 02:11:19;;;;;;;35.47;24.20;;;15.60;84.50;;;;;;5003839;28;20199;-68
2022/10/15 02:14:15;;;;;;;33.57;23.57;;;15.60;84.50;;;;;;4993972;28;20199;-68
2022/10/15 02:17:01;;;;;;;29.07;22.70;;;15.60;84.60;;;;;;5001954;28;20199;-68
2022/10/15 02:19:38;;;;;;;32.50;23.70;;;15.60;84.70;;;;;;5010478;28;20235;-68
2022/10/15 02:22:11;;;;;;;35.10;24.20;;;15.50;84.60;;;;;;5010123;28;20658;-68
2022/10/15 02:25:01;;;;;;;34.10;23.87;;;15.60;84.70;;;;;;5006540;28;20220;-68
2022/10/15 02:27:31;;;;;;;36.17;24.17;;;15.60;84.70;;;;;;5004199;28;20204;-68
2022/10/15 02:30:03;;;;;;;34.57;24.60;;;15.60;84.80;;;;;;5016432;28;20242;-68
2022/10/15 02:32:34;;;;;;;32.27;23.57;;;15.60;84.90;;;;;;5003059;28;20698;-68
2022/10/15 02:35:02;;;;;;;37.37;25.37;;;15.60;84.90;;;;;;5017959;28;20216;-68
2022/10/15 02:37:31;;;;;;;35.43;24.70;;;15.60;84.90;;;;;;5010279;28;20664;-68
2022/10/15 02:39:58;;;;;;;34.30;25.60;;;15.60;84.90;;;;;;5006560;28;20208;-68
2022/10/15 02:42:25;;;;;;;32.53;23.97;;;15.60;85.00;;;;;;4996479;28;20216;-68
2022/10/15 02:44:52;;;;;;;32.63;24.13;;;15.70;85.10;;;;;;5012625;28;20228;-68
2022/10/15 02:47:20;;;;;;;32.50;23.97;;;15.70;85.10;;;;;;5012346;28;20219;-68
2022/10/15 02:49:47;;;;;;;32.77;23.47;;;15.70;85.10;;;;;;5013152;28;20207;-68
2022/10/15 02:52:14;;;;;;;31.60;23.67;;;15.70;85.00;;;;;;5012305;28;20262;-68
2022/10/15 02:54:41;;;;;;;31.53;23.97;;;15.80;85.10;;;;;;5006297;28;20254;-68
2022/10/15 02:57:08;;;;;;;31.80;23.37;;;15.70;85.00;;;;;;5011561;28;20213;-68
2022/10/15 02:59:35;;;;;;;28.53;22.03;;;15.70;85.10;;;;;;5013600;28;20305;-68
2022/10/15 03:02:02;;;;;;;29.43;22.43;;;15.70;85.10;;;;;;5013926;28;20231;-68
2022/10/15 03:04:31;;;;;;;30.70;24.07;;;15.70;84.80;;;;;;5024432;28;20234;-68
2022/10/15 03:06:58;;;;;;;31.27;22.77;;;15.70;84.60;;;;;;5015109;28;20208;-68
2022/10/15 03:13:06;;;;;;;32.03;23.80;;;15.70;85.00;;;;;;5006370;28;20215;-68
2022/10/15 03:15:41;;;;;;;30.67;22.83;;;15.60;84.90;;;;;;5012012;28;20581;-68
2022/10/15 03:18:08;;;;;;;32.23;23.60;;;15.60;85.10;;;;;;5003251;28;20216;-68
2022/10/15 03:20:36;;;;;;;36.67;25.47;;;15.60;85.10;;;;;;5005756;28;20281;-68
2022/10/15 03:23:03;;;;;;;32.43;24.50;;;15.50;85.10;;;;;;5012728;28;20215;-68
2022/10/15 03:25:31;;;;;;;33.80;24.50;;;15.50;85.10;;;;;;5010463;28;20278;-68
2022/10/15 03:28:01;;;;;;;32.37;23.37;;;15.50;85.00;;;;;;5012585;28;20215;-68
2022/10/15 03:30:35;;;;;;;31.53;24.17;;;15.40;84.90;;;;;;5007285;28;20215;-68
2022/10/15 03:33:03;;;;;;;33.57;24.27;;;15.40;84.90;;;;;;5009258;28;20263;-68
2022/10/15 03:35:30;;;;;;;36.93;25.00;;;15.30;85.00;;;;;;5013601;28;20217;-68
2022/10/15 03:37:58;;;;;;;34.70;24.20;;;15.30;85.10;;;;;;5012552;28;20265;-68
2022/10/15 03:40:25;;;;;;;32.00;24.87;;;15.30;85.20;;;;;;5007426;28;20213;-68
2022/10/15 03:42:56;;;;;;;33.57;25.03;;;15.30;85.30;;;;;;5005912;28;20564;-68
2022/10/15 03:45:24;;;;;;;34.23;24.50;;;15.20;85.30;;;;;;5006921;28;20232;-69
2022/10/15 03:48:08;;;;;;;35.73;25.23;;;15.20;85.30;;;;;;5013811;28;20203;-68
2022/10/15 03:50:35;;;;;;;33.53;24.53;;;15.10;85.20;;;;;;5004366;28;20663;-68
2022/10/15 03:53:04;;;;;;;32.07;25.50;;;15.10;85.30;;;;;;5017838;28;20542;-68
2022/10/15 03:55:32;;;;;;;33.00;24.97;;;15.10;85.40;;;;;;5009422;28;20535;-68
2022/10/15 03:58:00;;;;;;;38.33;26.33;;;15.10;85.50;;;;;;5005748;28;20215;-68
2022/10/15 04:00:28;;;;;;;34.40;24.73;;;15.10;85.60;;;;;;5005366;28;20219;-68
2022/10/15 04:02:59;;;;;;;35.57;25.17;;;15.00;85.60;;;;;;5009537;28;20294;-68
2022/10/15 04:05:27;;;;;;;37.67;27.70;;;15.00;85.70;;;;;;5007523;28;20259;-68
2022/10/15 04:08:01;;;;;;;37.80;27.20;;;15.00;85.90;;;;;;5008130;28;20239;-68
2022/10/15 04:10:31;;;;;;;40.03;25.07;;;15.00;85.90;;;;;;5011730;28;20207;-68
2022/10/15 04:12:58;;;;;;;39.37;27.10;;;14.90;85.90;;;;;;5007720;28;20298;-68
2022/10/15 04:15:26;;;;;;;40.50;29.33;;;14.90;85.90;;;;;;5012529;28;20308;-68
2022/10/15 04:17:58;;;;;;;38.73;28.17;;;14.90;85.90;;;;;;5000072;28;20243;-68
2022/10/15 04:20:27;;;;;;;39.57;26.03;;;14.90;86.10;;;;;;5003481;28;20239;-68
2022/10/15 04:23:05;;;;;;;37.73;27.73;;;14.90;86.20;;;;;;5009523;28;20215;-68
2022/10/15 04:25:36;;;;;;;39.33;29.43;;;14.90;86.30;;;;;;5001329;28;20228;-68
2022/10/15 04:28:03;;;;;;;40.20;27.73;;;14.90;86.40;;;;;;5001451;28;20295;-68
2022/10/15 04:30:33;;;;;;;44.27;28.47;;;14.90;86.50;;;;;;5001704;28;20250;-68
2022/10/15 04:33:03;;;;;;;36.70;27.37;;;14.90;86.40;;;;;;5010724;28;20211;-68
2022/10/15 04:35:31;;;;;;;42.70;28.70;;;14.90;86.40;;;;;;5005702;28;20247;-68
2022/10/15 04:38:09;;;;;;;43.07;28.80;;;14.90;86.40;;;;;;5033386;28;20266;-68
2022/10/15 04:41:05;;;;;;;41.93;28.63;;;14.80;86.40;;;;;;5012497;28;20365;-68
2022/10/15 04:43:53;;;;;;;42.73;28.10;;;14.80;86.30;;;;;;5005287;28;20558;-68
2022/10/15 04:46:21;;;;;;;38.97;26.10;;;14.80;86.40;;;;;;5007285;28;20559;-68
2022/10/15 04:48:49;;;;;;;40.13;28.13;;;14.70;86.50;;;;;;5005658;28;20204;-68
2022/10/15 04:51:20;;;;;;;39.43;27.97;;;14.70;86.50;;;;;;5002634;28;20548;-67
2022/10/15 04:54:07;;;;;;;44.93;28.47;;;14.70;86.50;;;;;;5002460;28;20687;-68
2022/10/15 04:56:40;;;;;;;38.57;27.37;;;14.70;86.60;;;;;;5006115;28;20235;-68
2022/10/15 04:59:07;;;;;;;37.20;28.30;;;14.70;86.60;;;;;;5004180;28;20539;-68
2022/10/15 05:01:54;;;;;;;36.53;27.30;;;14.70;86.80;;;;;;5002262;28;20207;-68
2022/10/15 05:04:21;;;;;;;40.50;29.10;;;14.60;86.80;;;;;;5009002;28;20256;-68
2022/10/15 05:06:48;;;;;;;47.27;30.13;;;14.60;86.80;;;;;;5007782;28;20231;-68
2022/10/15 05:09:18;;;;;;;41.43;28.37;;;14.60;86.80;;;;;;5031388;28;20205;-68
2022/10/15 05:11:50;;;;;;;45.47;29.70;;;14.60;86.80;;;;;;5025006;28;20295;-68
2022/10/15 05:14:17;;;;;;;49.00;32.43;;;14.50;86.80;;;;;;5009656;28;20277;-68
2022/10/15 05:17:00;;;;;;;43.60;30.87;;;14.50;86.90;;;;;;5007999;28;20338;-68
2022/10/15 05:19:27;;;;;;;44.90;30.97;;;14.50;86.90;;;;;;5007108;28;20682;-68
2022/10/15 05:21:55;;;;;;;44.63;32.27;;;14.50;87.10;;;;;;5019597;28;20204;-68
2022/10/15 05:24:24;;;;;;;43.97;30.20;;;14.50;87.30;;;;;;5009905;28;20612;-68
2022/10/15 05:27:04;;;;;;;43.43;30.27;;;14.50;87.30;;;;;;5004823;28;20238;-68
2022/10/15 05:29:32;;;;;;;44.30;31.17;;;14.40;87.30;;;;;;5007104;28;20229;-68
2022/10/15 05:31:59;;;;;;;45.00;29.43;;;14.50;87.50;;;;;;5011987;28;20208;-68
2022/10/15 05:34:29;;;;;;;43.53;31.57;;;14.50;87.50;;;;;;5007569;28;20199;-68
2022/10/15 05:37:03;;;;;;;48.43;33.43;;;14.50;87.50;;;;;;5009738;28;20219;-68
2022/10/15 05:39:31;;;;;;;46.30;33.87;;;14.50;87.50;;;;;;5005878;28;20219;-68
2022/10/15 05:41:58;;;;;;;44.50;32.80;;;14.50;87.60;;;;;;5009904;28;20208;-68
2022/10/15 05:44:36;;;;;;;49.23;33.27;;;14.50;87.70;;;;;;5009770;28;20592;-68
2022/10/15 05:47:03;;;;;;;47.10;32.13;;;14.50;87.90;;;;;;5002068;28;20247;-68
2022/10/15 05:49:32;;;;;;;47.13;33.70;;;14.50;88.00;;;;;;5006947;28;20633;-68
2022/10/15 05:52:11;;;;;;;52.17;34.60;;;14.50;88.00;;;;;;5004283;28;20208;-68
2022/10/15 05:55:04;;;;;;;51.13;34.80;;;14.50;88.00;;;;;;5006483;28;20613;-68
2022/10/15 05:57:31;;;;;;;51.43;32.43;;;14.50;88.10;;;;;;5003648;28;20222;-68
2022/10/15 06:00:04;;;;;;;51.37;31.97;;;14.50;88.20;;;;;;4999864;28;20218;-68
2022/10/15 06:02:37;;;;;;;54.80;33.27;;;14.50;88.10;;;;;;5001351;28;20210;-68
2022/10/15 06:05:05;;;;;;;56.67;36.80;;;14.60;88.20;;;;;;5001264;28;20222;-68
2022/10/15 06:07:32;;;;;;;59.50;35.27;;;14.60;88.10;;;;;;5005082;28;20704;-68
2022/10/15 06:10:04;;;;;;;50.87;34.10;;;14.60;88.10;;;;;;5000569;28;20259;-68
2022/10/15 06:12:33;;;;;;;64.03;35.60;;;14.60;88.10;;;;;;5004322;28;20235;-68
2022/10/15 06:15:00;;;;;;;54.57;34.40;;;14.70;88.10;;;;;;5003943;28;20612;-68
2022/10/15 06:17:27;;;;;;;53.80;36.07;;;14.70;88.20;;;;;;4999602;28;20203;-68
2022/10/15 06:19:54;;;;;;;47.77;33.73;;;14.80;88.30;;;;;;5002504;28;20556;-68
2022/10/15 06:22:21;;;;;;;51.87;34.50;;;14.80;88.30;;;;;;5009806;28;20231;-68
2022/10/15 06:24:48;;;;;;;51.63;33.47;;;14.90;88.30;;;;;;5000133;28;20203;-68
2022/10/15 06:27:15;;;;;;;51.70;31.57;;;15.00;88.30;;;;;;5011503;28;20238;-68
2022/10/15 06:29:42;;;;;;;47.87;34.40;;;15.00;88.30;;;;;;5000794;28;20338;-65
2022/10/15 06:32:10;;;;;;;46.03;33.23;;;15.10;88.20;;;;;;4998407;28;20588;-65
2022/10/15 06:34:42;;;;;;;48.47;33.47;;;15.20;88.10;;;;;;5000394;28;20667;-68
2022/10/15 06:37:09;;;;;;;50.80;33.63;;;15.30;88.10;;;;;;5001022;28;20208;-69
2022/10/15 06:39:36;;;;;;;47.50;33.70;;;15.30;88.00;;;;;;5000016;28;20204;-69
2022/10/15 06:42:03;;;;;;;49.30;32.90;;;15.40;87.90;;;;;;5000181;28;20249;-69
2022/10/15 06:44:40;;;;;;;46.80;32.90;;;15.50;87.90;;;;;;5001283;28;20215;-69
2022/10/15 06:47:07;;;;;;;43.00;32.20;;;15.60;87.80;;;;;;5000249;28;20895;-69
2022/10/15 06:49:34;;;;;;;47.67;32.63;;;15.70;87.70;;;;;;5001859;28;20338;-69
2022/10/15 06:52:01;;;;;;;51.27;34.33;;;15.70;87.50;;;;;;5005957;28;20208;-69
2022/10/15 06:54:29;;;;;;;50.30;33.50;;;15.80;87.80;;;;;;5009557;28;20563;-69
2022/10/15 06:56:56;;;;;;;46.87;33.47;;;15.90;86.90;;;;;;4997908;28;20691;-69
2022/10/15 06:59:23;;;;;;;43.57;32.60;;;16.00;86.70;;;;;;4996786;28;20258;-69
2022/10/15 07:01:53;;;;;;;48.33;34.70;;;16.10;86.60;;;;;;4998154;28;20272;-69
2022/10/15 07:04:22;;;;;;;51.93;32.70;;;16.20;86.40;;;;;;5002661;28;20536;-69
2022/10/15 07:06:49;;;;;;;51.13;33.33;;;16.30;86.20;;;;;;5003192;28;20224;-69
2022/10/15 07:09:19;;;;;;;50.13;33.43;;;16.50;86.00;;;;;;5000978;28;20266;-69
2022/10/15 07:11:46;;;;;;;49.73;33.97;;;16.70;85.70;;;;;;5001782;28;20271;-70
2022/10/15 07:14:13;;;;;;;53.43;34.47;;;16.80;85.30;;;;;;5003026;28;20237;-70
2022/10/15 07:16:40;;;;;;;51.03;33.60;;;16.90;84.90;;;;;;4999514;28;20268;-70
2022/10/15 07:19:07;;;;;;;53.63;35.33;;;17.10;84.40;;;;;;5004878;28;20622;-70
2022/10/15 07:21:34;;;;;;;50.73;35.70;;;17.20;84.40;;;;;;5001758;28;20212;-70
2022/10/15 07:24:01;;;;;;;54.50;35.30;;;17.30;83.10;;;;;;5000133;28;20271;-70
2022/10/15 07:26:29;;;;;;;47.63;32.33;;;17.40;82.70;;;;;;5004881;28;20555;-70
2022/10/15 07:28:58;;;;;;;46.37;32.50;;;17.50;82.70;;;;;;5006093;28;20532;-70
2022/10/15 07:31:25;;;;;;;48.00;32.27;;;17.60;82.80;;;;;;5005153;28;20200;-70
2022/10/15 07:33:52;;;;;;;47.03;31.37;;;17.70;82.70;;;;;;5007439;28;20227;-70
2022/10/15 07:36:19;;;;;;;48.40;31.27;;;17.80;82.10;;;;;;5002703;28;20263;-70
2022/10/15 07:38:46;;;;;;;44.43;30.40;;;17.90;81.80;;;;;;5004698;28;20214;-71
2022/10/15 07:41:13;;;;;;;41.70;28.90;;;18.10;81.40;;;;;;5004989;28;20202;-70
2022/10/15 07:43:43;;;;;;;47.07;29.73;;;18.10;81.10;;;;;;5005402;28;20279;-71
2022/10/15 07:46:10;;;;;;;40.17;28.90;;;18.30;80.90;;;;;;5002830;28;20249;-71
2022/10/15 07:48:37;;;;;;;40.10;27.93;;;18.50;80.70;;;;;;5004254;28;20217;-71
2022/10/15 07:51:06;;;;;;;35.83;26.77;;;18.60;80.00;;;;;;5002754;28;20276;-71
2022/10/15 07:53:33;;;;;;;38.03;26.13;;;18.80;79.50;;;;;;5003237;28;20207;-71
2022/10/15 07:56:11;;;;;;;39.70;25.60;;;18.90;78.80;;;;;;5002042;28;20206;-70
2022/10/15 07:58:38;;;;;;;32.50;25.30;;;19.00;78.20;;;;;;5003039;28;20268;-71
2022/10/15 08:01:07;;;;;;;36.23;27.07;;;19.20;77.90;;;;;;5003836;28;20220;-71
2022/10/15 08:03:35;;;;;;;39.40;27.43;;;19.30;77.80;;;;;;5006099;28;20237;-71
2022/10/15 08:06:06;;;;;;;44.33;28.07;;;19.50;77.70;;;;;;5011510;28;20569;-71
2022/10/15 08:08:34;;;;;;;34.80;27.47;;;19.60;77.00;;;;;;5005190;28;20215;-71
2022/10/15 08:11:09;;;;;;;37.37;28.63;;;19.80;76.50;;;;;;5003252;28;20258;-71
2022/10/15 08:13:41;;;;;;;37.57;27.43;;;19.90;76.00;;;;;;5004503;28;20209;-71
2022/10/15 08:16:09;;;;;;;40.00;28.73;;;20.00;75.60;;;;;;5002104;28;20632;-71
2022/10/15 08:18:37;;;;;;;41.57;29.83;;;20.20;75.00;;;;;;5002250;28;20226;-71
2022/10/15 08:21:06;;;;;;;43.70;28.27;;;20.30;74.40;;;;;;5003951;28;20312;-71
2022/10/15 08:23:34;;;;;;;42.13;28.67;;;20.50;74.10;;;;;;5002462;28;20210;-71
2022/10/15 08:26:01;;;;;;;43.67;30.07;;;20.60;73.70;;;;;;5000834;28;20318;-71
2022/10/15 08:28:30;;;;;;;41.20;28.70;;;20.70;73.10;;;;;;5001509;28;20593;-71
2022/10/15 08:30:59;;;;;;;43.80;29.30;;;20.80;72.60;;;;;;5005497;28;20200;-71
2022/10/15 08:33:36;;;;;;;38.27;29.83;;;20.90;72.30;;;;;;5003500;28;20512;-71
2022/10/15 08:36:06;;;;;;;50.03;32.03;;;21.00;72.10;;;;;;5005420;28;20242;-71
2022/10/15 08:38:34;;;;;;;39.63;30.17;;;21.10;71.60;;;;;;5002525;28;20418;-71
2022/10/15 08:41:04;;;;;;;44.83;30.83;;;21.30;71.40;;;;;;5000159;28;20266;-71
2022/10/15 08:43:41;;;;;;;41.70;29.23;;;21.30;70.90;;;;;;5002161;28;20680;-71
2022/10/15 08:46:37;;;;;;;47.63;31.17;;;21.50;70.20;;;;;;5008291;28;20235;-71
2022/10/15 08:49:13;;;;;;;42.90;31.67;;;21.50;69.40;;;;;;5002302;28;20254;-71
2022/10/15 08:51:47;;;;;;;42.63;30.77;;;21.60;68.90;;;;;;5003583;28;20267;-71
2022/10/15 08:54:17;;;;;;;42.93;31.47;;;21.60;69.20;;;;;;5003428;28;20253;-71
2022/10/15 08:56:49;;;;;;;41.43;29.93;;;21.60;69.00;;;;;;5003390;28;20212;-71
2022/10/15 08:59:41;;;;;;;41.10;31.27;;;21.70;69.10;;;;;;5006021;28;20629;-71
2022/10/15 09:02:14;;;;;;;41.10;31.40;;;21.80;68.90;;;;;;5006519;28;20570;-71
2022/10/15 09:04:58;;;;;;;46.27;34.33;;;21.90;68.40;;;;;;5006033;28;20201;-71
2022/10/15 09:07:29;;;;;;;49.17;34.47;;;22.00;68.20;;;;;;5005538;28;20243;-71
2022/10/15 09:10:24;;;;;;;49.87;35.47;;;22.00;67.80;;;;;;5001705;28;20227;-71
2022/10/15 09:13:06;;;;;;;49.40;34.43;;;22.10;67.80;;;;;;5005324;28;20208;-71
2022/10/15 09:15:49;;;;;;;46.90;33.53;;;22.20;67.50;;;;;;5003986;28;20689;-71
2022/10/15 09:18:21;;;;;;;44.33;33.07;;;22.20;67.20;;;;;;5005373;28;20583;-71
2022/10/15 09:20:49;;;;;;;50.73;35.20;;;22.30;67.00;;;;;;5002488;28;20619;-71
2022/10/15 09:23:19;;;;;;;51.30;36.40;;;22.40;67.00;;;;;;5004434;28;20258;-71
2022/10/15 09:26:08;;;;;;;47.63;35.07;;;22.50;66.90;;;;;;5000621;28;20258;-71
2022/10/15 09:28:49;;;;;;;50.00;34.10;;;22.60;66.60;;;;;;5035816;28;20239;-71
2022/10/15 09:31:26;;;;;;;46.07;33.13;;;22.70;66.20;;;;;;5002861;28;20195;-71
2022/10/15 09:34:02;;;;;;;47.40;33.17;;;22.80;66.00;;;;;;5003151;28;20208;-71
2022/10/15 09:36:50;;;;;;;46.83;33.40;;;22.90;65.30;;;;;;5007561;28;20210;-71
2022/10/15 09:39:44;;;;;;;49.17;34.70;;;22.90;65.10;;;;;;5006313;28;20220;-71
2022/10/15 09:42:37;;;;;;;49.57;35.50;;;23.00;65.10;;;;;;5000750;28;20234;-71
2022/10/15 09:45:10;;;;;;;49.33;33.23;;;23.00;64.40;;;;;;5004141;28;20201;-71
2022/10/15 09:47:39;;;;;;;52.87;34.47;;;23.10;63.90;;;;;;5002354;28;20658;-71
2022/10/15 09:50:09;;;;;;;50.40;35.63;;;23.00;64.30;;;;;;5002558;28;20334;-71
2022/10/15 09:52:58;;;;;;;49.50;33.23;;;23.10;64.70;;;;;;5002179;28;20193;-71
2022/10/15 09:55:30;;;;;;;46.50;34.67;;;23.10;64.30;;;;;;5005135;28;20278;-71
2022/10/15 09:58:05;;;;;;;45.60;32.73;;;23.20;63.70;;;;;;5019114;28;20629;-71
2022/10/15 10:00:51;;;;;;;47.17;32.77;;;23.20;63.20;;;;;;5000765;28;20198;-71
2022/10/15 10:03:18;;;;;;;42.60;30.97;;;23.20;62.60;;;;;;5002289;28;20258;-71
2022/10/15 10:05:46;;;;;;;46.53;32.50;;;23.20;62.90;;;;;;5005992;28;20208;-71
2022/10/15 10:08:24;;;;;;;53.53;35.50;;;23.20;63.30;;;;;;4998993;28;20286;-71
2022/10/15 10:10:56;;;;;;;51.83;34.70;;;23.30;62.10;;;;;;5000893;28;20195;-71
2022/10/15 10:13:25;;;;;;;46.47;34.57;;;23.40;62.50;;;;;;5004238;28;20200;-71
2022/10/15 10:15:54;;;;;;;53.57;36.90;;;23.50;62.40;;;;;;5000239;28;20274;-71
2022/10/15 10:18:25;;;;;;;52.73;34.57;;;23.60;62.20;;;;;;4999486;28;20224;-71
2022/10/15 10:21:02;;;;;;;44.03;32.40;;;23.60;62.00;;;;;;5004389;28;20260;-71
2022/10/15 10:23:35;;;;;;;41.43;32.67;;;23.70;62.00;;;;;;5002839;28;20516;-71
2022/10/15 10:26:08;;;;;;;48.83;32.67;;;23.80;61.70;;;;;;5002616;28;20549;-71
2022/10/15 10:28:55;;;;;;;40.40;29.93;;;23.90;61.40;;;;;;5002885;28;20601;-71
2022/10/15 10:31:41;;;;;;;45.43;29.80;;;24.00;60.10;;;;;;5000124;28;20263;-71
2022/10/15 10:34:30;;;;;;;42.23;29.70;;;24.10;60.30;;;;;;5004506;28;20192;-71
2022/10/15 10:37:02;;;;;;;36.97;27.57;;;24.20;59.20;;;;;;5002287;28;20212;-71
2022/10/15 10:39:35;;;;;;;51.60;32.77;;;24.30;58.80;;;;;;5002463;28;20273;-71
2022/10/15 10:42:21;;;;;;;44.53;33.07;;;24.30;58.50;;;;;;5006174;28;20603;-71
2022/10/15 10:44:48;;;;;;;46.73;33.70;;;24.30;58.40;;;;;;5002626;28;20638;-71
2022/10/15 10:47:24;;;;;;;43.13;31.93;;;24.40;58.50;;;;;;5002812;28;20224;-71
2022/10/15 10:49:57;;;;;;;46.77;31.27;;;24.40;58.00;;;;;;5005886;28;20661;-71
2022/10/15 10:52:27;;;;;;;41.47;30.40;;;24.40;58.60;;;;;;4998447;28;20263;-71
2022/10/15 10:55:18;;;;;;;46.07;31.97;;;24.60;58.90;;;;;;4999778;28;20208;-70
2022/10/15 10:57:56;;;;;;;46.53;32.10;;;24.70;58.60;;;;;;5005906;28;20204;-71
2022/10/15 11:00:39;;;;;;;40.47;30.37;;;24.80;58.20;;;;;;5012916;28;20219;-71
2022/10/15 11:03:26;;;;;;;47.57;32.47;;;25.00;58.20;;;;;;5006972;28;20543;-71
2022/10/15 11:06:22;;;;;;;44.37;31.47;;;25.00;56.70;;;;;;5023612;28;20318;-71
2022/10/15 11:09:01;;;;;;;37.43;30.17;;;25.00;56.80;;;;;;5012342;28;20588;-71
2022/10/15 11:11:33;;;;;;;47.27;31.07;;;25.00;56.70;;;;;;5012010;28;20243;-71
2022/10/15 11:14:08;;;;;;;41.97;28.83;;;25.10;56.80;;;;;;5009708;28;20209;-71
2022/10/15 11:16:53;;;;;;;35.77;29.80;;;25.20;56.50;;;;;;5006570;28;20612;-71
2022/10/15 11:19:59;;;;;;;44.80;29.57;;;25.30;56.20;;;;;;5004155;28;20240;-70
2022/10/15 11:23:10;;;;;;;40.93;28.97;;;25.40;56.00;;;;;;5019848;28;20307;-71
2022/10/15 11:26:19;;;;;;;47.17;29.17;;;25.60;55.80;;;;;;5003971;28;20200;-71
2022/10/15 11:29:10;;;;;;;39.33;29.50;;;25.60;54.90;;;;;;4992660;28;20584;-71
2022/10/15 11:32:01;;;;;;;38.47;28.83;;;25.70;55.10;;;;;;5005754;28;20216;-71
2022/10/15 11:35:12;;;;;;;38.73;27.63;;;25.80;55.10;;;;;;5004075;28;20198;-71
2022/10/15 11:38:12;;;;;;;40.73;26.73;;;25.80;54.80;;;;;;4997162;28;20308;-71
2022/10/15 11:41:10;;;;;;;33.23;25.73;;;25.90;54.40;;;;;;5003986;28;20199;-71
2022/10/15 11:44:03;;;;;;;38.93;27.93;;;25.90;54.10;;;;;;5007437;28;20208;-70
2022/10/15 11:46:53;;;;;;;34.40;27.17;;;25.90;53.70;;;;;;5000530;28;20646;-70
2022/10/15 11:49:40;;;;;;;37.13;26.37;;;26.00;53.80;;;;;;5003247;28;20205;-71
2022/10/15 11:52:29;;;;;;;31.63;25.07;;;26.00;53.40;;;;;;5014136;28;20219;-71
2022/10/15 11:55:18;;;;;;;36.87;26.37;;;26.00;53.00;;;;;;5011640;28;20190;-71
2022/10/15 11:57:50;;;;;;;38.40;26.27;;;26.10;53.20;;;;;;4989952;28;20287;-71
2022/10/15 12:00:40;;;;;;;36.10;26.87;;;26.10;53.10;;;;;;5012859;28;20210;-71
2022/10/15 12:03:15;;;;;;;39.57;26.87;;;26.20;52.40;;;;;;5004838;28;20251;-71
2022/10/15 12:05:53;;;;;;;34.07;26.17;;;26.10;52.40;;;;;;5003730;28;20219;-71
2022/10/15 12:08:23;;;;;;;37.57;25.77;;;26.10;52.60;;;;;;5005571;28;20223;-71
2022/10/15 12:11:03;;;;;;;34.70;25.67;;;26.20;52.90;;;;;;5007402;28;20197;-71
2022/10/15 12:13:41;;;;;;;31.17;23.90;;;26.20;52.20;;;;;;5003342;28;20284;-70
2022/10/15 12:16:34;;;;;;;41.37;23.23;;;26.20;52.20;;;;;;5009449;28;20196;-71
2022/10/15 12:19:21;;;;;;;37.10;23.30;;;26.20;52.10;;;;;;5004241;28;20196;-70
2022/10/15 12:21:55;;;;;;;30.87;20.90;;;26.20;51.30;;;;;;5004521;28;20257;-70
2022/10/15 12:24:40;;;;;;;30.53;21.93;;;26.10;51.30;;;;;;5003689;28;20522;-71
2022/10/15 12:27:19;;;;;;;29.33;21.00;;;26.10;51.30;;;;;;5001260;28;20220;-71
2022/10/15 12:30:12;;;;;;;28.20;18.90;;;26.00;50.50;;;;;;4999881;28;20228;-70
2022/10/15 12:32:44;;;;;;;24.87;18.50;;;25.90;51.90;;;;;;5002971;28;20200;-71
2022/10/15 12:35:14;;;;;;;30.97;19.17;;;25.80;51.40;;;;;;5002022;28;20206;-70
2022/10/15 12:37:45;;;;;;;28.33;21.80;;;25.80;51.70;;;;;;5007159;28;20200;-71
2022/10/15 12:40:38;;;;;;;27.33;19.63;;;25.70;51.90;;;;;;5005226;28;20279;-71
2022/10/15 12:43:18;;;;;;;29.10;19.90;;;25.80;52.10;;;;;;5002467;28;20217;-71
2022/10/15 12:46:02;;;;;;;26.20;18.67;;;25.80;51.50;;;;;;5005157;28;20229;-71
2022/10/15 12:48:43;;;;;;;22.53;17.90;;;25.70;51.40;;;;;;4998956;28;20303;-71
2022/10/15 12:51:22;;;;;;;22.43;16.87;;;25.70;51.60;;;;;;5001913;28;20195;-71
2022/10/15 12:53:57;;;;;;;23.50;17.27;;;25.70;52.20;;;;;;5004645;28;21311;-70
2022/10/15 12:56:39;;;;;;;26.80;18.23;;;25.80;52.50;;;;;;5004802;28;20234;-70
2022/10/15 12:59:30;;;;;;;22.93;16.87;;;25.80;52.60;;;;;;5003214;28;20201;-70
2022/10/15 13:02:01;;;;;;;23.63;17.83;;;25.90;52.60;;;;;;5004751;28;20217;-70
2022/10/15 13:04:37;;;;;;;26.33;20.87;;;25.90;52.40;;;;;;5011674;28;20282;-70
2022/10/15 13:07:05;;;;;;;26.17;18.90;;;25.90;51.90;;;;;;5037213;28;20609;-70
2022/10/15 13:09:32;;;;;;;27.07;18.90;;;25.90;51.80;;;;;;5005252;28;20200;-70